sensor_id;sensor_type;location;lat;lon;timestamp;pressure;altitude;pressure_sealevel;temperature;humidity
13209;BME280;6669;42.678;23.332;2023-04-15T00:01:53;93773.84;;;7.83;100.00
13209;BME280;6669;42.678;23.332;2023-04-15T00:04:23;93788.09;;;7.79;100.00
13209;BME280;6669;42.678;23.332;2023-04-15T00:06:51;93807.44;;;7.68;100.00
13209;BME280;6669;42.678;23.332;2023-04-15T00:09:20;93801.63;;;7.43;100.00
13209;BME280;6669;42.678;23.332;2023-04-15T00:11:49;93803.34;;;7.50;100.00
13209;BME280;6669;42.678;23.332;2023-04-15T00:14:17;93793.06;;;7.65;100.00
13209;BME280;6669;42.678;23.332;2023-04-15T00:16:44;93799.88;;;7.81;100.00
13209;BME280;6669;42.678;23.332;2023-04-15T00:19:12;93797.59;;;8.01;100.00
13209;BME280;6669;42.678;23.332;2023-04-15T00:21:42;93799.22;;;8.17;100.00
13209;BME280;6669;42.678;23.332;2023-04-15T00:24:09;93793.41;;;8.15;100.00
13209;BME280;6669;42.678;23.332;2023-04-15T00:26:38;93796.66;;;8.32;100.00
13209;BME280;6669;42.678;23.332;2023-04-15T00:29:06;93794.22;;;8.31;100.00
13209;BME280;6669;42.678;23.332;2023-04-15T00:31:33;93793.78;;;8.42;100.00
13209;BME280;6669;42.678;23.332;2023-04-15T00:34:02;93795.75;;;8.40;100.00
13209;BME280;6669;42.678;23.332;2023-04-15T00:36:30;93800.53;;;8.52;100.00
13209;BME280;6669;42.678;23.332;2023-04-15T00:39:00;93805.44;;;8.46;100.00
13209;BME280;6669;42.678;23.332;2023-04-15T00:41:29;93806.28;;;8.39;100.00
13209;BME280;6669;42.678;23.332;2023-04-15T00:43:57;93812.19;;;8.47;100.00
13209;BME280;6669;42.678;23.332;2023-04-15T00:46:26;93809.47;;;8.49;100.00
13209;BME280;6669;42.678;23.332;2023-04-15T00:48:55;93807.03;;;8.47;100.00
13209;BME280;6669;42.678;23.332;2023-04-15T00:51:23;93799.75;;;8.28;100.00
13209;BME280;6669;42.678;23.332;2023-04-15T00:53:51;93803.41;;;8.33;100.00
13209;BME280;6669;42.678;23.332;2023-04-15T00:56:20;93803.88;;;8.37;100.00
13209;BME280;6669;42.678;23.332;2023-04-15T00:58:50;93802.34;;;8.28;100.00
13209;BME280;6669;42.678;23.332;2023-04-15T01:01:20;93792.72;;;8.22;100.00
13209;BME280;6669;42.678;23.332;2023-04-15T01:03:49;93802.59;;;8.18;100.00
13209;BME280;6669;42.678;23.332;2023-04-15T01:06:17;93801.59;;;8.04;100.00
13209;BME280;6669;42.678;23.332;2023-04-15T01:08:45;93802.91;;;7.70;100.00
13209;BME280;6669;42.678;23.332;2023-04-15T01:11:13;93809.19;;;7.91;100.00
13209;BME280;6669;42.678;23.332;2023-04-15T01:13:43;93810.81;;;7.92;100.00
13209;BME280;6669;42.678;23.332;2023-04-15T01:16:12;93816.50;;;7.87;100.00
13209;BME280;6669;42.678;23.332;2023-04-15T01:18:41;93813.25;;;7.85;100.00
13209;BME280;6669;42.678;23.332;2023-04-15T01:21:09;93811.41;;;7.94;100.00
13209;BME280;6669;42.678;23.332;2023-04-15T01:23:38;93801.88;;;7.94;100.00
13209;BME280;6669;42.678;23.332;2023-04-15T01:26:07;93794.72;;;7.96;100.00
13209;BME280;6669;42.678;23.332;2023-04-15T01:28:36;93792.97;;;7.97;100.00
13209;BME280;6669;42.678;23.332;2023-04-15T01:31:05;93793.56;;;7.99;100.00
13209;BME280;6669;42.678;23.332;2023-04-15T01:33:34;93792.41;;;7.87;100.00
13209;BME280;6669;42.678;23.332;2023-04-15T01:36:02;93798.84;;;7.91;100.00
13209;BME280;6669;42.678;23.332;2023-04-15T01:38:31;93792.50;;;7.93;100.00
13209;BME280;6669;42.678;23.332;2023-04-15T01:40:59;93792.13;;;7.96;100.00
13209;BME280;6669;42.678;23.332;2023-04-15T01:43:28;93797.97;;;7.98;100.00
13209;BME280;6669;42.678;23.332;2023-04-15T01:45:56;93796.06;;;7.92;100.00
13209;BME280;6669;42.678;23.332;2023-04-15T01:48:24;93805.63;;;7.92;100.00
13209;BME280;6669;42.678;23.332;2023-04-15T01:50:53;93817.88;;;7.75;100.00
13209;BME280;6669;42.678;23.332;2023-04-15T01:53:23;93814.22;;;7.46;100.00
13209;BME280;6669;42.678;23.332;2023-04-15T01:55:51;93817.63;;;7.46;100.00
13209;BME280;6669;42.678;23.332;2023-04-15T01:58:19;93811.56;;;7.54;100.00
13209;BME280;6669;42.678;23.332;2023-04-15T02:00:49;93821.97;;;7.23;100.00
13209;BME280;6669;42.678;23.332;2023-04-15T02:03:17;93816.00;;;7.22;100.00
13209;BME280;6669;42.678;23.332;2023-04-15T02:05:45;93813.13;;;7.40;100.00
13209;BME280;6669;42.678;23.332;2023-04-15T02:08:13;93814.06;;;7.47;100.00
13209;BME280;6669;42.678;23.332;2023-04-15T02:10:41;93813.88;;;7.26;100.00
13209;BME280;6669;42.678;23.332;2023-04-15T02:13:09;93799.03;;;7.43;100.00
13209;BME280;6669;42.678;23.332;2023-04-15T02:15:37;93809.16;;;7.52;100.00
13209;BME280;6669;42.678;23.332;2023-04-15T02:18:06;93806.47;;;7.46;100.00
13209;BME280;6669;42.678;23.332;2023-04-15T02:20:34;93801.41;;;7.52;100.00
13209;BME280;6669;42.678;23.332;2023-04-15T02:23:03;93797.38;;;7.50;100.00
13209;BME280;6669;42.678;23.332;2023-04-15T02:25:32;93796.41;;;7.51;100.00
13209;BME280;6669;42.678;23.332;2023-04-15T02:28:00;93797.38;;;7.50;100.00
13209;BME280;6669;42.678;23.332;2023-04-15T02:30:28;93797.25;;;7.43;100.00
13209;BME280;6669;42.678;23.332;2023-04-15T02:32:56;93792.63;;;7.39;100.00
13209;BME280;6669;42.678;23.332;2023-04-15T02:35:26;93808.34;;;7.29;100.00
13209;BME280;6669;42.678;23.332;2023-04-15T02:37:54;93804.22;;;7.19;100.00
13209;BME280;6669;42.678;23.332;2023-04-15T02:40:21;93795.03;;;7.17;100.00
13209;BME280;6669;42.678;23.332;2023-04-15T02:42:49;93797.94;;;7.14;100.00
13209;BME280;6669;42.678;23.332;2023-04-15T02:45:17;93817.63;;;6.83;100.00
13209;BME280;6669;42.678;23.332;2023-04-15T02:47:49;93799.31;;;6.70;100.00
13209;BME280;6669;42.678;23.332;2023-04-15T02:50:17;93803.94;;;6.83;100.00
13209;BME280;6669;42.678;23.332;2023-04-15T02:52:46;93806.38;;;6.76;100.00
13209;BME280;6669;42.678;23.332;2023-04-15T02:55:14;93814.47;;;6.73;100.00
13209;BME280;6669;42.678;23.332;2023-04-15T02:57:43;93806.09;;;6.71;100.00
13209;BME280;6669;42.678;23.332;2023-04-15T03:00:12;93815.59;;;6.70;100.00
13209;BME280;6669;42.678;23.332;2023-04-15T03:02:40;93812.72;;;6.65;100.00
13209;BME280;6669;42.678;23.332;2023-04-15T03:05:11;93807.06;;;6.62;100.00
13209;BME280;6669;42.678;23.332;2023-04-15T03:07:39;93814.22;;;6.51;100.00
13209;BME280;6669;42.678;23.332;2023-04-15T03:10:09;93822.97;;;6.42;100.00
13209;BME280;6669;42.678;23.332;2023-04-15T03:12:37;93825.25;;;6.37;100.00
13209;BME280;6669;42.678;23.332;2023-04-15T03:15:07;93825.28;;;6.20;100.00
13209;BME280;6669;42.678;23.332;2023-04-15T03:17:35;93836.13;;;6.08;100.00
13209;BME280;6669;42.678;23.332;2023-04-15T03:20:05;93845.63;;;5.91;100.00
13209;BME280;6669;42.678;23.332;2023-04-15T03:22:35;93830.47;;;5.87;100.00
13209;BME280;6669;42.678;23.332;2023-04-15T03:25:03;93837.88;;;5.82;100.00
13209;BME280;6669;42.678;23.332;2023-04-15T03:27:33;93833.38;;;5.76;100.00
13209;BME280;6669;42.678;23.332;2023-04-15T03:30:01;93839.00;;;5.80;100.00
13209;BME280;6669;42.678;23.332;2023-04-15T03:32:29;93857.69;;;5.57;100.00
13209;BME280;6669;42.678;23.332;2023-04-15T03:34:57;93854.16;;;5.58;100.00
13209;BME280;6669;42.678;23.332;2023-04-15T03:37:25;93850.59;;;5.67;100.00
13209;BME280;6669;42.678;23.332;2023-04-15T03:39:53;93854.94;;;5.50;100.00
13209;BME280;6669;42.678;23.332;2023-04-15T03:42:21;93866.06;;;5.51;100.00
13209;BME280;6669;42.678;23.332;2023-04-15T03:44:50;93867.50;;;5.53;100.00
13209;BME280;6669;42.678;23.332;2023-04-15T03:47:18;93873.66;;;5.61;100.00
13209;BME280;6669;42.678;23.332;2023-04-15T03:49:46;93873.31;;;5.55;100.00
13209;BME280;6669;42.678;23.332;2023-04-15T03:52:14;93882.84;;;5.55;100.00
13209;BME280;6669;42.678;23.332;2023-04-15T03:54:42;93881.03;;;5.47;100.00
13209;BME280;6669;42.678;23.332;2023-04-15T03:57:10;93886.50;;;5.44;100.00
13209;BME280;6669;42.678;23.332;2023-04-15T03:59:38;93880.06;;;5.40;100.00
13209;BME280;6669;42.678;23.332;2023-04-15T04:02:07;93882.66;;;5.48;100.00
13209;BME280;6669;42.678;23.332;2023-04-15T04:04:35;93878.94;;;5.51;100.00
13209;BME280;6669;42.678;23.332;2023-04-15T04:07:03;93879.78;;;5.51;100.00
13209;BME280;6669;42.678;23.332;2023-04-15T04:09:31;93885.25;;;5.56;100.00
13209;BME280;6669;42.678;23.332;2023-04-15T04:11:59;93891.88;;;5.59;100.00
13209;BME280;6669;42.678;23.332;2023-04-15T04:14:28;93879.47;;;5.63;100.00
13209;BME280;6669;42.678;23.332;2023-04-15T04:16:56;93878.63;;;5.62;100.00
13209;BME280;6669;42.678;23.332;2023-04-15T04:19:25;93890.06;;;5.60;100.00
13209;BME280;6669;42.678;23.332;2023-04-15T04:21:53;93878.47;;;5.64;100.00
13209;BME280;6669;42.678;23.332;2023-04-15T04:24:21;93893.50;;;5.77;100.00
13209;BME280;6669;42.678;23.332;2023-04-15T04:26:49;93890.41;;;5.81;100.00
13209;BME280;6669;42.678;23.332;2023-04-15T04:29:16;93891.41;;;5.88;100.00
13209;BME280;6669;42.678;23.332;2023-04-15T04:31:44;93895.44;;;5.99;100.00
13209;BME280;6669;42.678;23.332;2023-04-15T04:34:14;93894.31;;;6.02;100.00
13209;BME280;6669;42.678;23.332;2023-04-15T04:36:43;93893.53;;;6.10;100.00
13209;BME280;6669;42.678;23.332;2023-04-15T04:39:11;93890.63;;;6.13;100.00
13209;BME280;6669;42.678;23.332;2023-04-15T04:41:39;93897.06;;;6.09;100.00
13209;BME280;6669;42.678;23.332;2023-04-15T04:44:07;93896.72;;;6.12;100.00
13209;BME280;6669;42.678;23.332;2023-04-15T04:46:35;93904.31;;;6.13;100.00
13209;BME280;6669;42.678;23.332;2023-04-15T04:49:03;93901.09;;;6.19;100.00
13209;BME280;6669;42.678;23.332;2023-04-15T04:51:31;93911.09;;;6.22;100.00
13209;BME280;6669;42.678;23.332;2023-04-15T04:54:00;93909.78;;;6.27;100.00
13209;BME280;6669;42.678;23.332;2023-04-15T04:56:29;93916.56;;;6.36;100.00
13209;BME280;6669;42.678;23.332;2023-04-15T04:58:57;93917.38;;;6.36;100.00
13209;BME280;6669;42.678;23.332;2023-04-15T05:01:25;93918.66;;;6.41;100.00
13209;BME280;6669;42.678;23.332;2023-04-15T05:03:53;93919.75;;;6.54;100.00
13209;BME280;6669;42.678;23.332;2023-04-15T05:06:21;93913.63;;;6.47;100.00
13209;BME280;6669;42.678;23.332;2023-04-15T05:08:49;93930.56;;;6.58;100.00
13209;BME280;6669;42.678;23.332;2023-04-15T05:11:19;93940.22;;;6.64;100.00
13209;BME280;6669;42.678;23.332;2023-04-15T05:13:46;93947.78;;;6.82;100.00
13209;BME280;6669;42.678;23.332;2023-04-15T05:16:14;93954.88;;;6.80;100.00
13209;BME280;6669;42.678;23.332;2023-04-15T05:18:43;93961.66;;;6.81;100.00
13209;BME280;6669;42.678;23.332;2023-04-15T05:21:12;93960.38;;;6.85;100.00
13209;BME280;6669;42.678;23.332;2023-04-15T05:23:40;93945.16;;;6.91;100.00
13209;BME280;6669;42.678;23.332;2023-04-15T05:26:08;93960.44;;;7.09;100.00
13209;BME280;6669;42.678;23.332;2023-04-15T05:28:37;93952.81;;;7.24;100.00
13209;BME280;6669;42.678;23.332;2023-04-15T05:31:05;93952.94;;;7.30;100.00
13209;BME280;6669;42.678;23.332;2023-04-15T05:33:34;93950.84;;;7.34;100.00
13209;BME280;6669;42.678;23.332;2023-04-15T05:36:02;93938.78;;;7.49;100.00
13209;BME280;6669;42.678;23.332;2023-04-15T05:38:30;93940.53;;;7.57;100.00
13209;BME280;6669;42.678;23.332;2023-04-15T05:40:58;93947.47;;;7.65;100.00
13209;BME280;6669;42.678;23.332;2023-04-15T05:43:26;93944.31;;;7.78;100.00
13209;BME280;6669;42.678;23.332;2023-04-15T05:45:55;93952.97;;;7.62;100.00
13209;BME280;6669;42.678;23.332;2023-04-15T05:48:23;93940.56;;;7.80;100.00
13209;BME280;6669;42.678;23.332;2023-04-15T05:50:52;93949.53;;;7.93;100.00
13209;BME280;6669;42.678;23.332;2023-04-15T05:53:20;93959.38;;;7.97;100.00
13209;BME280;6669;42.678;23.332;2023-04-15T05:55:48;93959.25;;;8.14;100.00
13209;BME280;6669;42.678;23.332;2023-04-15T05:58:16;93949.66;;;8.23;100.00
13209;BME280;6669;42.678;23.332;2023-04-15T06:00:44;93954.59;;;8.32;100.00
13209;BME280;6669;42.678;23.332;2023-04-15T06:03:14;93964.25;;;8.39;100.00
13209;BME280;6669;42.678;23.332;2023-04-15T06:05:42;93966.00;;;8.46;100.00
13209;BME280;6669;42.678;23.332;2023-04-15T06:08:11;93973.97;;;8.60;100.00
13209;BME280;6669;42.678;23.332;2023-04-15T06:10:39;93977.22;;;8.62;100.00
13209;BME280;6669;42.678;23.332;2023-04-15T06:13:07;93971.34;;;8.68;100.00
13209;BME280;6669;42.678;23.332;2023-04-15T06:15:35;93971.19;;;8.85;100.00
13209;BME280;6669;42.678;23.332;2023-04-15T06:18:03;93974.47;;;8.78;100.00
13209;BME280;6669;42.678;23.332;2023-04-15T06:20:32;93973.94;;;8.98;100.00
13209;BME280;6669;42.678;23.332;2023-04-15T06:23:00;93978.22;;;9.06;100.00
13209;BME280;6669;42.678;23.332;2023-04-15T06:25:28;93978.25;;;9.21;100.00
13209;BME280;6669;42.678;23.332;2023-04-15T06:27:56;93984.69;;;9.25;100.00
13209;BME280;6669;42.678;23.332;2023-04-15T06:30:24;93993.25;;;9.40;100.00
13209;BME280;6669;42.678;23.332;2023-04-15T06:32:52;93989.16;;;9.31;100.00
13209;BME280;6669;42.678;23.332;2023-04-15T06:35:20;94004.50;;;9.18;100.00
13209;BME280;6669;42.678;23.332;2023-04-15T06:37:50;94001.22;;;9.39;100.00
13209;BME280;6669;42.678;23.332;2023-04-15T06:40:18;94003.03;;;9.38;100.00
13209;BME280;6669;42.678;23.332;2023-04-15T06:42:46;94000.75;;;9.50;100.00
13209;BME280;6669;42.678;23.332;2023-04-15T06:45:14;93993.06;;;9.57;100.00
13209;BME280;6669;42.678;23.332;2023-04-15T06:47:42;94001.28;;;9.75;100.00
13209;BME280;6669;42.678;23.332;2023-04-15T06:50:10;94005.09;;;9.79;100.00
13209;BME280;6669;42.678;23.332;2023-04-15T06:52:39;94012.44;;;9.91;100.00
13209;BME280;6669;42.678;23.332;2023-04-15T06:55:09;94013.56;;;10.03;100.00
13209;BME280;6669;42.678;23.332;2023-04-15T06:57:37;94007.56;;;10.03;100.00
13209;BME280;6669;42.678;23.332;2023-04-15T07:00:06;94008.88;;;10.13;100.00
13209;BME280;6669;42.678;23.332;2023-04-15T07:02:34;94008.59;;;10.23;100.00
13209;BME280;6669;42.678;23.332;2023-04-15T07:05:03;94000.28;;;10.35;100.00
13209;BME280;6669;42.678;23.332;2023-04-15T07:07:31;94006.81;;;10.45;100.00
13209;BME280;6669;42.678;23.332;2023-04-15T07:09:59;94012.88;;;10.53;100.00
13209;BME280;6669;42.678;23.332;2023-04-15T07:12:29;93996.59;;;10.66;100.00
13209;BME280;6669;42.678;23.332;2023-04-15T07:14:56;94002.78;;;10.65;100.00
13209;BME280;6669;42.678;23.332;2023-04-15T07:17:24;93995.41;;;10.68;100.00
13209;BME280;6669;42.678;23.332;2023-04-15T07:19:52;94007.50;;;10.83;100.00
13209;BME280;6669;42.678;23.332;2023-04-15T07:22:20;94001.78;;;10.94;100.00
13209;BME280;6669;42.678;23.332;2023-04-15T07:24:49;94007.94;;;11.15;100.00
13209;BME280;6669;42.678;23.332;2023-04-15T07:27:17;94012.81;;;11.24;100.00
13209;BME280;6669;42.678;23.332;2023-04-15T07:29:47;94010.88;;;11.40;100.00
13209;BME280;6669;42.678;23.332;2023-04-15T07:32:17;94007.78;;;11.58;100.00
13209;BME280;6669;42.678;23.332;2023-04-15T07:34:45;94005.81;;;11.67;100.00
13209;BME280;6669;42.678;23.332;2023-04-15T07:37:13;94013.63;;;11.67;100.00
13209;BME280;6669;42.678;23.332;2023-04-15T07:39:41;94009.47;;;11.79;100.00
13209;BME280;6669;42.678;23.332;2023-04-15T07:42:09;93995.41;;;11.67;100.00
13209;BME280;6669;42.678;23.332;2023-04-15T07:44:37;94001.47;;;11.87;100.00
13209;BME280;6669;42.678;23.332;2023-04-15T07:47:07;94006.50;;;11.89;100.00
13209;BME280;6669;42.678;23.332;2023-04-15T07:49:34;94015.31;;;11.81;100.00
13209;BME280;6669;42.678;23.332;2023-04-15T07:52:04;94018.50;;;11.90;100.00
13209;BME280;6669;42.678;23.332;2023-04-15T07:54:32;94019.22;;;12.05;100.00
13209;BME280;6669;42.678;23.332;2023-04-15T07:57:00;94019.09;;;12.27;100.00
13209;BME280;6669;42.678;23.332;2023-04-15T07:59:28;94017.88;;;12.36;100.00
13209;BME280;6669;42.678;23.332;2023-04-15T08:01:58;94027.13;;;12.46;100.00
13209;BME280;6669;42.678;23.332;2023-04-15T08:04:28;94022.94;;;12.58;100.00
13209;BME280;6669;42.678;23.332;2023-04-15T08:06:58;94024.13;;;12.69;100.00
13209;BME280;6669;42.678;23.332;2023-04-15T08:09:26;94025.16;;;12.74;100.00
13209;BME280;6669;42.678;23.332;2023-04-15T08:11:54;94006.69;;;12.83;99.92
13209;BME280;6669;42.678;23.332;2023-04-15T08:14:23;94017.72;;;12.91;95.99
13209;BME280;6669;42.678;23.332;2023-04-15T08:16:51;94015.69;;;13.07;92.05
13209;BME280;6669;42.678;23.332;2023-04-15T08:19:19;94020.72;;;13.02;87.59
13209;BME280;6669;42.678;23.332;2023-04-15T08:21:48;94014.31;;;12.98;85.24
13209;BME280;6669;42.678;23.332;2023-04-15T08:24:16;94014.09;;;13.19;85.15
13209;BME280;6669;42.678;23.332;2023-04-15T08:26:45;94018.09;;;13.22;80.76
13209;BME280;6669;42.678;23.332;2023-04-15T08:29:13;94020.91;;;13.34;79.69
13209;BME280;6669;42.678;23.332;2023-04-15T08:31:41;94019.66;;;13.56;76.28
13209;BME280;6669;42.678;23.332;2023-04-15T08:34:10;94005.56;;;13.78;73.09
13209;BME280;6669;42.678;23.332;2023-04-15T08:36:38;94014.56;;;13.82;74.04
13209;BME280;6669;42.678;23.332;2023-04-15T08:39:08;94007.38;;;13.77;74.69
13209;BME280;6669;42.678;23.332;2023-04-15T08:41:39;94002.78;;;14.11;73.22
13209;BME280;6669;42.678;23.332;2023-04-15T08:44:13;93995.28;;;14.28;71.07
13209;BME280;6669;42.678;23.332;2023-04-15T08:46:41;94001.16;;;14.49;71.27
13209;BME280;6669;42.678;23.332;2023-04-15T08:49:10;93999.72;;;14.53;68.76
13209;BME280;6669;42.678;23.332;2023-04-15T08:51:39;94005.09;;;14.65;68.54
13209;BME280;6669;42.678;23.332;2023-04-15T08:54:09;94000.72;;;14.84;66.47
13209;BME280;6669;42.678;23.332;2023-04-15T08:56:37;93993.47;;;15.11;66.46
13209;BME280;6669;42.678;23.332;2023-04-15T08:59:06;93986.22;;;15.13;64.79
13209;BME280;6669;42.678;23.332;2023-04-15T09:01:36;93997.63;;;15.19;65.31
13209;BME280;6669;42.678;23.332;2023-04-15T09:04:05;93990.63;;;14.94;64.04
13209;BME280;6669;42.678;23.332;2023-04-15T09:06:34;93982.09;;;14.74;64.83
13209;BME280;6669;42.678;23.332;2023-04-15T09:09:01;93984.53;;;14.75;61.91
13209;BME280;6669;42.678;23.332;2023-04-15T09:11:31;93976.31;;;14.71;63.22
13209;BME280;6669;42.678;23.332;2023-04-15T09:13:59;93973.31;;;14.93;64.57
13209;BME280;6669;42.678;23.332;2023-04-15T09:16:27;93973.47;;;15.17;65.49
13209;BME280;6669;42.678;23.332;2023-04-15T09:18:55;93966.81;;;15.40;67.31
13209;BME280;6669;42.678;23.332;2023-04-15T09:21:23;93969.59;;;15.63;67.81
13209;BME280;6669;42.678;23.332;2023-04-15T09:23:55;93960.28;;;15.86;66.58
13209;BME280;6669;42.678;23.332;2023-04-15T09:26:33;93968.19;;;15.61;63.92
13209;BME280;6669;42.678;23.332;2023-04-15T09:29:03;93973.16;;;15.88;63.99
13209;BME280;6669;42.678;23.332;2023-04-15T09:31:32;93976.09;;;16.10;63.62
13209;BME280;6669;42.678;23.332;2023-04-15T09:34:00;93979.56;;;16.22;64.42
13209;BME280;6669;42.678;23.332;2023-04-15T09:36:28;93972.34;;;16.17;63.60
13209;BME280;6669;42.678;23.332;2023-04-15T09:38:57;93973.19;;;15.99;64.58
13209;BME280;6669;42.678;23.332;2023-04-15T09:41:25;93965.47;;;16.05;64.53
13209;BME280;6669;42.678;23.332;2023-04-15T09:43:55;93960.31;;;15.98;64.32
13209;BME280;6669;42.678;23.332;2023-04-15T09:46:40;93962.91;;;16.16;64.49
13209;BME280;6669;42.678;23.332;2023-04-15T09:49:10;93962.22;;;16.21;62.24
13209;BME280;6669;42.678;23.332;2023-04-15T09:51:39;93969.97;;;16.16;62.35
13209;BME280;6669;42.678;23.332;2023-04-15T09:54:20;93973.81;;;16.13;60.16
13209;BME280;6669;42.678;23.332;2023-04-15T09:56:48;93982.06;;;16.17;61.08
13209;BME280;6669;42.678;23.332;2023-04-15T09:59:18;93977.25;;;16.44;59.75
13209;BME280;6669;42.678;23.332;2023-04-15T10:01:47;93978.16;;;16.38;58.40
13209;BME280;6669;42.678;23.332;2023-04-15T10:04:15;93966.44;;;16.53;58.76
13209;BME280;6669;42.678;23.332;2023-04-15T10:06:44;93967.63;;;16.80;59.44
13209;BME280;6669;42.678;23.332;2023-04-15T10:09:12;93963.31;;;17.10;58.90
13209;BME280;6669;42.678;23.332;2023-04-15T10:11:40;93962.75;;;17.31;58.35
13209;BME280;6669;42.678;23.332;2023-04-15T10:14:09;93967.53;;;17.46;57.82
13209;BME280;6669;42.678;23.332;2023-04-15T10:16:40;93961.47;;;17.46;52.48
13209;BME280;6669;42.678;23.332;2023-04-15T10:19:09;93957.88;;;16.57;48.57
13209;BME280;6669;42.678;23.332;2023-04-15T10:21:40;93940.22;;;16.88;48.90
13209;BME280;6669;42.678;23.332;2023-04-15T10:24:08;93943.59;;;16.95;49.10
13209;BME280;6669;42.678;23.332;2023-04-15T10:26:36;93931.53;;;16.76;49.69
13209;BME280;6669;42.678;23.332;2023-04-15T10:29:05;93927.31;;;16.63;50.79
13209;BME280;6669;42.678;23.332;2023-04-15T10:31:34;93926.34;;;16.22;51.89
13209;BME280;6669;42.678;23.332;2023-04-15T10:34:07;93932.69;;;16.80;52.58
13209;BME280;6669;42.678;23.332;2023-04-15T10:36:36;93943.59;;;16.53;49.85
13209;BME280;6669;42.678;23.332;2023-04-15T10:39:40;93925.28;;;16.65;49.09
13209;BME280;6669;42.678;23.332;2023-04-15T10:42:10;93937.94;;;16.80;50.92
13209;BME280;6669;42.678;23.332;2023-04-15T10:44:39;93927.25;;;17.17;49.17
13209;BME280;6669;42.678;23.332;2023-04-15T10:47:13;93932.94;;;17.78;47.02
13209;BME280;6669;42.678;23.332;2023-04-15T10:49:46;93927.53;;;17.44;48.70
13209;BME280;6669;42.678;23.332;2023-04-15T10:52:16;93923.47;;;17.77;47.20
13209;BME280;6669;42.678;23.332;2023-04-15T10:54:45;93915.69;;;18.11;47.19
13209;BME280;6669;42.678;23.332;2023-04-15T10:57:15;93903.84;;;17.97;46.81
13209;BME280;6669;42.678;23.332;2023-04-15T11:00:08;93915.84;;;17.93;47.57
13209;BME280;6669;42.678;23.332;2023-04-15T11:02:42;93913.16;;;17.47;47.20
13209;BME280;6669;42.678;23.332;2023-04-15T11:05:11;93923.25;;;18.08;47.69
13209;BME280;6669;42.678;23.332;2023-04-15T11:07:53;93923.72;;;18.68;47.40
13209;BME280;6669;42.678;23.332;2023-04-15T11:13:26;93917.34;;;18.63;43.20
13209;BME280;6669;42.678;23.332;2023-04-15T11:15:56;93922.75;;;18.40;43.28
13209;BME280;6669;42.678;23.332;2023-04-15T11:18:31;93923.19;;;18.20;43.29
13209;BME280;6669;42.678;23.332;2023-04-15T11:21:01;93922.66;;;18.18;42.34
13209;BME280;6669;42.678;23.332;2023-04-15T11:23:32;93907.38;;;18.32;43.38
13209;BME280;6669;42.678;23.332;2023-04-15T11:26:03;93917.69;;;18.67;42.54
13209;BME280;6669;42.678;23.332;2023-04-15T11:28:37;93924.50;;;18.68;42.10
13209;BME280;6669;42.678;23.332;2023-04-15T11:31:07;93916.00;;;19.34;42.61
13209;BME280;6669;42.678;23.332;2023-04-15T11:33:44;93909.91;;;18.26;42.72
13209;BME280;6669;42.678;23.332;2023-04-15T11:36:12;93904.41;;;18.79;42.46
13209;BME280;6669;42.678;23.332;2023-04-15T11:38:45;93909.50;;;18.35;42.80
13209;BME280;6669;42.678;23.332;2023-04-15T11:41:14;93906.03;;;17.59;43.68
13209;BME280;6669;42.678;23.332;2023-04-15T11:43:43;93910.16;;;17.55;43.63
13209;BME280;6669;42.678;23.332;2023-04-15T11:46:11;93906.63;;;17.49;42.34
13209;BME280;6669;42.678;23.332;2023-04-15T11:48:42;93905.50;;;18.15;39.55
13209;BME280;6669;42.678;23.332;2023-04-15T11:51:11;93908.59;;;17.42;41.79
13209;BME280;6669;42.678;23.332;2023-04-15T11:53:42;93909.94;;;17.97;42.14
13209;BME280;6669;42.678;23.332;2023-04-15T11:56:16;93908.56;;;18.24;41.84
13209;BME280;6669;42.678;23.332;2023-04-15T11:58:46;93907.47;;;18.37;41.81
13209;BME280;6669;42.678;23.332;2023-04-15T12:01:16;93903.84;;;18.77;41.36
13209;BME280;6669;42.678;23.332;2023-04-15T12:03:46;93903.72;;;18.50;41.82
13209;BME280;6669;42.678;23.332;2023-04-15T12:06:16;93901.44;;;18.24;42.35
13209;BME280;6669;42.678;23.332;2023-04-15T12:11:36;93900.75;;;18.46;40.79
13209;BME280;6669;42.678;23.332;2023-04-15T12:14:19;93906.47;;;19.11;40.82
13209;BME280;6669;42.678;23.332;2023-04-15T12:16:48;93893.56;;;18.92;41.13
13209;BME280;6669;42.678;23.332;2023-04-15T12:19:22;93901.31;;;18.65;41.27
13209;BME280;6669;42.678;23.332;2023-04-15T12:21:52;93906.66;;;18.70;41.51
13209;BME280;6669;42.678;23.332;2023-04-15T12:24:22;93895.66;;;18.90;42.66
13209;BME280;6669;42.678;23.332;2023-04-15T12:26:51;93900.38;;;19.27;43.40
13209;BME280;6669;42.678;23.332;2023-04-15T12:29:26;93896.06;;;19.21;40.47
13209;BME280;6669;42.678;23.332;2023-04-15T12:31:56;93900.72;;;19.14;40.72
13209;BME280;6669;42.678;23.332;2023-04-15T12:34:28;93901.63;;;18.86;41.69
13209;BME280;6669;42.678;23.332;2023-04-15T12:36:57;93900.44;;;19.10;43.30
13209;BME280;6669;42.678;23.332;2023-04-15T12:39:27;93909.53;;;18.69;42.84
13209;BME280;6669;42.678;23.332;2023-04-15T12:41:56;93913.19;;;18.34;42.85
13209;BME280;6669;42.678;23.332;2023-04-15T12:44:26;93921.38;;;18.20;42.71
13209;BME280;6669;42.678;23.332;2023-04-15T12:46:55;93911.97;;;18.41;43.39
13209;BME280;6669;42.678;23.332;2023-04-15T12:49:24;93918.03;;;18.25;43.23
13209;BME280;6669;42.678;23.332;2023-04-15T12:51:54;93917.41;;;18.52;42.65
13209;BME280;6669;42.678;23.332;2023-04-15T12:54:23;93912.47;;;18.55;43.11
13209;BME280;6669;42.678;23.332;2023-04-15T12:56:50;93910.97;;;18.59;43.57
13209;BME280;6669;42.678;23.332;2023-04-15T12:59:19;93909.22;;;18.48;44.80
13209;BME280;6669;42.678;23.332;2023-04-15T13:01:48;93908.66;;;18.46;45.38
13209;BME280;6669;42.678;23.332;2023-04-15T13:04:18;93908.47;;;18.87;44.68
13209;BME280;6669;42.678;23.332;2023-04-15T13:06:47;93917.72;;;19.46;43.34
13209;BME280;6669;42.678;23.332;2023-04-15T13:09:15;93900.44;;;19.33;42.20
13209;BME280;6669;42.678;23.332;2023-04-15T13:11:43;93891.56;;;18.66;42.20
13209;BME280;6669;42.678;23.332;2023-04-15T13:14:10;93912.25;;;18.74;42.64
13209;BME280;6669;42.678;23.332;2023-04-15T13:16:39;93911.53;;;18.95;42.77